createdAt,value
2023-01-01T00:00:17.137Z,100500.66
2023-01-01T00:02:49.548Z,100489.09
2023-01-01T00:05:21.853Z,100497.58
2023-01-01T00:07:58.214Z,100502.27
2023-01-01T00:10:30.463Z,100504.45
2023-01-01T00:13:02.969Z,100493.63
2023-01-01T00:15:35.613Z,100496.73
2023-01-01T00:18:08.156Z,100501.52
2023-01-01T00:20:40.785Z,100505.58
2023-01-01T00:23:13.859Z,100507.32
2023-01-01T00:25:47.104Z,100503.03
2023-01-01T00:28:19.681Z,100496.39
2023-01-01T00:30:52.819Z,100491.86
2023-01-01T00:33:25.190Z,100485.93
2023-01-01T00:35:58.331Z,100488.41
2023-01-01T00:38:30.806Z,100481.64
2023-01-01T00:41:03.926Z,100487.80
2023-01-01T00:43:36.402Z,100494.94
2023-01-01T00:46:09.072Z,100493.22
2023-01-01T00:48:41.941Z,100494.94
2023-01-01T00:51:14.411Z,100491.75
2023-01-01T00:53:46.881Z,100481.64
2023-01-01T00:56:19.426Z,100473.64
2023-01-01T00:59:01.011Z,100480.30
2023-01-01T01:01:26.199Z,100475.39
2023-01-01T01:03:58.755Z,100467.27
2023-01-01T01:06:31.360Z,100474.28
2023-01-01T01:09:04.936Z,100480.28
2023-01-01T01:11:38.090Z,100482.23
2023-01-01T01:14:10.648Z,100486.92
2023-01-01T01:16:43.426Z,100483.97
2023-01-01T01:19:18.563Z,100490.73
2023-01-01T01:21:53.367Z,100493.92
2023-01-01T01:24:25.986Z,100487.91
2023-01-01T01:26:58.843Z,100484.47
2023-01-01T01:29:31.355Z,100480.77
2023-01-01T01:32:05.266Z,100473.88
2023-01-01T01:34:37.750Z,100469.70
2023-01-01T01:37:10.467Z,100481.17
2023-01-01T01:39:42.813Z,100473.92
2023-01-01T01:42:18.555Z,100476.75
2023-01-01T01:44:59.896Z,100477.11
2023-01-01T01:47:37.193Z,100479.70
2023-01-01T01:50:22.764Z,100470.95
2023-01-01T01:53:05.648Z,100475.40
2023-01-01T01:56:03.429Z,100477.23
2023-01-01T01:58:35.756Z,100480.93
2023-01-01T02:01:08.302Z,100478.47
2023-01-01T02:04:10.272Z,100471.70
2023-01-01T02:06:42.613Z,100463.58
2023-01-01T02:09:15.646Z,100452.88
2023-01-01T02:11:48.225Z,100454.59
2023-01-01T02:14:20.640Z,100447.22
2023-01-01T02:17:04.093Z,100439.86
2023-01-01T02:20:14.883Z,100440.22
2023-01-01T02:23:10.862Z,100451.41
2023-01-01T02:26:19.751Z,100458.80
2023-01-01T02:29:39.464Z,100456.58
2023-01-01T02:32:19.415Z,100452.91
2023-01-01T02:35:07.359Z,100453.99
2023-01-01T02:37:39.850Z,100465.09
2023-01-01T02:40:12.745Z,100452.40
2023-01-01T02:42:45.738Z,100450.05
2023-01-01T02:45:18.597Z,100451.92
2023-01-01T02:47:51.097Z,100442.33
2023-01-01T02:50:26.715Z,100446.86
2023-01-01T02:53:16.170Z,100452.64
2023-01-01T02:56:28.485Z,100448.58
2023-01-01T02:59:47.560Z,100448.45
2023-01-01T03:02:46.677Z,100450.08
2023-01-01T03:06:06.797Z,100441.96
2023-01-01T03:09:02.702Z,100444.16
2023-01-01T03:11:48.065Z,100443.20
2023-01-01T03:14:50.123Z,100446.74
2023-01-01T03:17:38.484Z,100452.67
2023-01-01T03:20:18.837Z,100451.31
2023-01-01T03:22:52.454Z,100440.37
2023-01-01T03:25:32.570Z,100450.32
2023-01-01T03:28:18.277Z,100449.72
2023-01-01T03:30:51.108Z,100446.02
2023-01-01T03:33:33.782Z,100455.85
2023-01-01T03:36:13.339Z,100454.89
2023-01-01T03:38:53.638Z,100452.42
2023-01-01T03:41:54.607Z,100450.95
2023-01-01T03:44:38.739Z,100456.12
2023-01-01T03:47:11.347Z,100447.36
2023-01-01T03:49:44.196Z,100456.59
2023-01-01T03:52:33.497Z,100455.00
2023-01-01T03:55:13.131Z,100458.10
2023-01-01T03:57:53.565Z,100457.59
2023-01-01T04:00:29.244Z,100472.13
2023-01-01T04:03:20.814Z,100463.99
2023-01-01T04:05:53.178Z,100468.53
2023-01-01T04:08:27.393Z,100469.77
2023-01-01T04:11:00.710Z,100467.69
2023-01-01T04:13:36.877Z,100468.56
2023-01-01T04:16:10.284Z,100459.44
2023-01-01T04:18:42.879Z,100463.86
2023-01-01T04:21:15.353Z,100453.78
2023-01-01T04:23:47.949Z,100457.95
2023-01-01T04:26:20.811Z,100455.59
2023-01-01T04:28:53.368Z,100443.80
2023-01-01T04:31:25.823Z,100454.64
2023-01-01T04:33:58.357Z,100447.62
2023-01-01T04:36:31.101Z,100462.27
2023-01-01T04:39:03.708Z,100447.37
2023-01-01T04:41:36.531Z,100458.56
2023-01-01T04:44:09.088Z,100448.09
2023-01-01T04:46:42.709Z,100454.25
2023-01-01T04:49:15.316Z,100453.86
2023-01-01T04:51:47.822Z,100450.19
2023-01-01T04:54:20.211Z,100464.09
2023-01-01T04:56:53.790Z,100460.69
2023-01-01T04:59:26.980Z,100468.18
2023-01-01T05:01:59.941Z,100452.80
2023-01-01T05:04:32.603Z,100455.61
2023-01-01T05:07:04.926Z,100461.66
2023-01-01T05:09:37.804Z,100467.31
2023-01-01T05:12:10.260Z,100456.47
2023-01-01T05:14:42.870Z,100461.77
2023-01-01T05:17:15.440Z,100464.96
2023-01-01T05:19:48.125Z,100467.31
2023-01-01T05:22:21.073Z,100471.14
2023-01-01T05:24:54.800Z,100468.69
2023-01-01T05:27:27.393Z,100472.52
2023-01-01T05:29:59.792Z,100467.94
2023-01-01T05:32:33.179Z,100464.99
2023-01-01T05:35:06.659Z,100466.11
2023-01-01T05:37:39.309Z,100469.78
2023-01-01T05:40:33.394Z,100467.95
2023-01-01T05:43:06.284Z,100481.50
2023-01-01T05:45:39.304Z,100472.14
2023-01-01T05:48:12.805Z,100470.87
2023-01-01T05:50:49.424Z,100477.17
2023-01-01T05:53:21.871Z,100467.68
2023-01-01T05:56:01.859Z,100488.40
2023-01-01T05:58:35.356Z,100482.20
2023-01-01T06:01:19.317Z,100485.78
2023-01-01T06:03:53.080Z,100492.07
2023-01-01T06:06:29.084Z,100491.20
2023-01-01T06:09:06.012Z,100501.68
2023-01-01T06:11:38.637Z,100510.17
2023-01-01T06:14:11.032Z,100500.59
2023-01-01T06:16:44.384Z,100509.48
2023-01-01T06:19:16.995Z,100513.02
2023-01-01T06:21:49.568Z,100513.42
2023-01-01T06:24:22.196Z,100505.04
2023-01-01T06:26:54.984Z,100506.75
2023-01-01T06:29:27.528Z,100507.11
2023-01-01T06:31:59.827Z,100492.08
2023-01-01T06:34:32.673Z,100494.06
2023-01-01T06:37:07.223Z,100499.23
2023-01-01T06:39:39.428Z,100491.45
2023-01-01T06:42:11.873Z,100504.25
2023-01-01T06:44:44.707Z,100491.92
2023-01-01T06:47:18.149Z,100500.56
2023-01-01T06:49:52.469Z,100489.82
2023-01-01T06:52:24.972Z,100492.89
2023-01-01T06:54:58.215Z,100494.99
2023-01-01T06:57:30.746Z,100501.17
2023-01-01T07:00:03.277Z,100503.38
2023-01-01T07:02:36.678Z,100498.06
2023-01-01T07:05:10.157Z,100501.23
2023-01-01T07:07:43.771Z,100514.77
2023-01-01T07:10:18.242Z,100511.30
2023-01-01T07:12:51.332Z,100512.02
2023-01-01T07:15:23.699Z,100507.09
2023-01-01T07:17:56.145Z,100510.90
2023-01-01T07:20:28.686Z,100518.63
2023-01-01T07:23:02.369Z,100518.23
2023-01-01T07:25:35.344Z,100505.87
2023-01-01T07:28:07.862Z,100511.39
2023-01-01T07:30:40.380Z,100514.81
2023-01-01T07:33:15.382Z,100510.19
2023-01-01T07:35:49.614Z,100513.52
2023-01-01T07:38:22.218Z,100508.80
2023-01-01T07:40:54.664Z,100506.52
2023-01-01T07:43:27.775Z,100509.94
2023-01-01T07:46:01.072Z,100504.59
2023-01-01T07:48:39.781Z,100498.41
2023-01-01T07:51:08.035Z,100499.64
2023-01-01T07:53:40.902Z,100495.20
2023-01-01T07:56:13.433Z,100496.02
2023-01-01T07:58:47.299Z,100492.44
2023-01-01T08:01:20.438Z,100492.92
2023-01-01T08:03:54.986Z,100491.13
2023-01-01T08:06:28.031Z,100496.20
2023-01-01T08:09:00.588Z,100494.33
2023-01-01T08:11:33.537Z,100493.80
2023-01-01T08:14:06.413Z,100484.97
2023-01-01T08:16:38.956Z,100497.52
2023-01-01T08:19:11.505Z,100486.66
2023-01-01T08:21:44.284Z,100478.31
2023-01-01T08:24:16.726Z,100487.42
2023-01-01T08:26:51.150Z,100486.47
2023-01-01T08:29:23.990Z,100481.62
2023-01-01T08:31:56.455Z,100492.64
2023-01-01T08:34:28.824Z,100486.25
2023-01-01T08:37:01.427Z,100502.16
2023-01-01T08:39:33.826Z,100495.16
2023-01-01T08:42:11.964Z,100495.30
2023-01-01T08:44:40.460Z,100481.95
2023-01-01T08:47:26.961Z,100469.07
2023-01-01T08:50:01.351Z,100477.05
2023-01-01T08:52:33.808Z,100473.26
2023-01-01T08:55:06.608Z,100473.91
2023-01-01T08:57:39.659Z,100473.77
2023-01-01T09:00:13.871Z,100473.27
2023-01-01T09:02:47.023Z,100469.53
2023-01-01T09:05:19.795Z,100466.47
2023-01-01T09:07:52.699Z,100460.52
2023-01-01T09:10:26.746Z,100462.06
2023-01-01T09:12:59.835Z,100454.80
2023-01-01T09:15:33.039Z,100457.22
2023-01-01T09:18:05.712Z,100456.16
2023-01-01T09:20:38.346Z,100454.59
2023-01-01T09:23:12.935Z,100442.19
2023-01-01T09:25:45.913Z,100446.59
2023-01-01T09:28:25.177Z,100458.06
2023-01-01T09:30:53.011Z,100449.25
2023-01-01T09:33:25.516Z,100452.93
2023-01-01T09:36:17.876Z,100450.84
2023-01-01T09:41:48.814Z,100450.83
2023-01-01T09:44:56.100Z,100440.83
2023-01-01T09:47:38.324Z,100442.38
2023-01-01T09:50:14.915Z,100439.84
2023-01-01T09:53:16.061Z,100442.03
2023-01-01T09:56:00.326Z,100438.39
2023-01-01T09:58:38.178Z,100438.69
2023-01-01T10:01:44.146Z,100443.31
2023-01-01T10:04:45.484Z,100440.78
2023-01-01T10:07:32.086Z,100437.04
2023-01-01T10:10:42.711Z,100439.17
2023-01-01T10:13:37.935Z,100431.13
2023-01-01T10:16:30.503Z,100426.55
2023-01-01T10:19:25.895Z,100418.05
2023-01-01T10:22:02.964Z,100413.73
2023-01-01T10:25:05.320Z,100421.05
2023-01-01T10:27:47.032Z,100424.67
2023-01-01T10:30:21.959Z,100435.02
2023-01-01T10:32:55.903Z,100439.80
2023-01-01T10:35:35.373Z,100427.58
2023-01-01T10:38:08.037Z,100443.80
2023-01-01T10:40:40.677Z,100438.64
2023-01-01T10:43:13.313Z,100435.47
2023-01-01T10:45:50.282Z,100437.33
2023-01-01T10:48:25.196Z,100434.90
2023-01-01T10:51:09.550Z,100433.86
2023-01-01T10:53:45.294Z,100428.33
2023-01-01T10:56:23.580Z,100422.68
2023-01-01T10:59:03.354Z,100421.17
2023-01-01T11:01:37.544Z,100438.44
2023-01-01T11:04:21.749Z,100444.58
2023-01-01T11:06:54.179Z,100436.06
2023-01-01T11:09:29.484Z,100437.45
2023-01-01T11:12:19.073Z,100430.13
2023-01-01T11:14:54.556Z,100435.79
2023-01-01T11:17:33.705Z,100445.30
2023-01-01T11:20:07.316Z,100438.17
2023-01-01T11:22:46.300Z,100441.66
2023-01-01T11:25:21.696Z,100446.96
2023-01-01T11:27:55.098Z,100442.22
2023-01-01T11:30:31.123Z,100438.84
2023-01-01T11:33:04.411Z,100432.97
2023-01-01T11:35:41.782Z,100423.87
2023-01-01T11:38:25.892Z,100422.27
2023-01-01T11:41:07.190Z,100420.37
2023-01-01T11:43:46.974Z,100403.06
2023-01-01T11:46:25.476Z,100415.46
2023-01-01T11:48:58.235Z,100424.75
2023-01-01T11:51:50.300Z,100424.32
2023-01-01T11:54:34.252Z,100415.38
2023-01-01T11:57:15.001Z,100419.76
2023-01-01T11:59:52.250Z,100398.84
2023-01-01T12:02:40.499Z,100407.38
2023-01-01T12:05:43.278Z,100412.99
2023-01-01T12:08:19.605Z,100411.06
2023-01-01T12:11:23.993Z,100424.52
2023-01-01T12:14:13.546Z,100422.75
2023-01-01T12:17:02.687Z,100413.16
2023-01-01T12:20:04.972Z,100421.99
2023-01-01T12:22:37.516Z,100419.23
2023-01-01T12:25:13.694Z,100422.42
2023-01-01T12:28:06.180Z,100414.69
2023-01-01T12:31:14.153Z,100426.58
2023-01-01T12:34:09.255Z,100425.71
2023-01-01T12:36:55.523Z,100438.82
2023-01-01T12:39:50.238Z,100446.74
2023-01-01T12:42:43.917Z,100437.50
2023-01-01T12:46:12.111Z,100443.63
2023-01-01T12:49:05.343Z,100448.89
2023-01-01T12:52:24.304Z,100454.65
2023-01-01T12:55:51.491Z,100452.06
2023-01-01T12:58:28.585Z,100469.08
2023-01-01T13:01:32.822Z,100462.56
2023-01-01T13:04:21.797Z,100463.92
2023-01-01T13:07:04.702Z,100473.12
2023-01-01T13:09:40.532Z,100484.37
2023-01-01T13:12:36.992Z,100480.58
2023-01-01T13:15:43.443Z,100485.02
2023-01-01T13:18:23.849Z,100492.70
2023-01-01T13:21:09.974Z,100489.29
2023-01-01T13:23:44.869Z,100490.80
2023-01-01T13:26:25.502Z,100486.34
2023-01-01T13:29:11.835Z,100488.37
2023-01-01T13:31:49.102Z,100487.99
2023-01-01T13:34:40.403Z,100482.00
2023-01-01T13:37:18.125Z,100495.92
2023-01-01T13:40:16.031Z,100503.19
2023-01-01T13:43:04.351Z,100493.06
2023-01-01T13:48:46.958Z,100508.53
2023-01-01T13:52:11.561Z,100509.31
2023-01-01T13:55:08.367Z,100519.64
2023-01-01T13:57:55.493Z,100523.03
2023-01-01T14:00:39.022Z,100529.62
2023-01-01T14:03:16.471Z,100537.59
2023-01-01T14:05:52.707Z,100531.45
2023-01-01T14:08:36.106Z,100537.53
2023-01-01T14:11:24.282Z,100538.17
2023-01-01T14:13:56.763Z,100532.52
2023-01-01T14:16:29.641Z,100538.11
2023-01-01T14:19:03.577Z,100534.69
2023-01-01T14:21:36.000Z,100535.67
2023-01-01T14:24:09.741Z,100525.93
2023-01-01T14:26:42.621Z,100527.09
2023-01-01T14:29:28.803Z,100532.83
2023-01-01T14:32:03.993Z,100537.55
2023-01-01T14:34:37.274Z,100544.30
2023-01-01T14:37:25.027Z,100550.03
2023-01-01T14:40:28.350Z,100545.50
2023-01-01T14:43:08.900Z,100540.65
2023-01-01T14:45:43.761Z,100545.66
2023-01-01T14:48:21.032Z,100544.08
2023-01-01T14:50:54.081Z,100537.06
2023-01-01T14:53:34.447Z,100542.52
2023-01-01T14:56:07.319Z,100542.86
2023-01-01T14:58:41.914Z,100545.23
2023-01-01T15:01:18.637Z,100542.13
2023-01-01T15:04:03.545Z,100533.61
2023-01-01T15:06:39.943Z,100531.91
2023-01-01T15:09:18.652Z,100534.63
2023-01-01T15:11:54.297Z,100529.81
2023-01-01T15:14:39.433Z,100539.34
2023-01-01T15:17:16.100Z,100547.72
2023-01-01T15:20:04.784Z,100543.14
2023-01-01T15:22:41.320Z,100551.66
2023-01-01T15:25:18.573Z,100555.41
2023-01-01T15:27:54.722Z,100554.39
2023-01-01T15:30:30.000Z,100555.75
2023-01-01T15:33:10.823Z,100558.13
2023-01-01T15:35:45.566Z,100558.61
2023-01-01T15:38:23.988Z,100555.55
2023-01-01T15:40:56.741Z,100544.65
2023-01-01T15:43:33.565Z,100552.19
2023-01-01T15:46:30.408Z,100548.59
2023-01-01T15:48:58.856Z,100556.03
2023-01-01T15:51:31.249Z,100553.17
2023-01-01T15:54:24.627Z,100546.15
2023-01-01T15:56:57.266Z,100552.61
2023-01-01T15:59:35.823Z,100554.18
2023-01-01T16:02:18.372Z,100560.98
2023-01-01T16:04:51.502Z,100554.18
2023-01-01T16:07:25.857Z,100560.50
2023-01-01T16:09:58.586Z,100565.14
2023-01-01T16:12:31.013Z,100560.56
2023-01-01T16:15:04.597Z,100560.42
2023-01-01T16:17:37.624Z,100557.42
2023-01-01T16:20:17.630Z,100561.85
2023-01-01T16:22:50.033Z,100558.98
2023-01-01T16:25:24.031Z,100571.45
2023-01-01T16:27:56.590Z,100556.71
2023-01-01T16:30:29.727Z,100560.13
2023-01-01T16:33:02.282Z,100561.35
2023-01-01T16:35:35.339Z,100562.58
2023-01-01T16:38:07.812Z,100558.84
2023-01-01T16:40:40.336Z,100559.08
2023-01-01T16:43:19.309Z,100560.78
2023-01-01T16:45:52.161Z,100565.22
2023-01-01T16:48:25.000Z,100566.82
2023-01-01T16:50:57.400Z,100574.99
2023-01-01T16:53:29.815Z,100574.90
2023-01-01T16:56:02.863Z,100573.47
2023-01-01T16:58:48.864Z,100576.62
2023-01-01T17:01:10.230Z,100580.50
2023-01-01T17:03:43.704Z,100579.91
2023-01-01T17:06:16.158Z,100582.91
2023-01-01T17:08:48.540Z,100593.11
2023-01-01T17:11:24.384Z,100582.00
2023-01-01T17:13:57.195Z,100579.18
2023-01-01T17:16:36.496Z,100586.27
2023-01-01T17:19:19.562Z,100583.86
2023-01-01T17:21:38.292Z,100586.82
2023-01-01T17:24:10.591Z,100585.01
2023-01-01T17:26:43.283Z,100597.05
2023-01-01T17:29:15.624Z,100597.33
2023-01-01T17:31:49.561Z,100593.37
2023-01-01T17:34:22.273Z,100585.00
2023-01-01T17:36:54.679Z,100588.70
2023-01-01T17:39:27.096Z,100582.41
2023-01-01T17:41:59.579Z,100575.61
2023-01-01T17:44:32.128Z,100587.48
2023-01-01T17:47:04.500Z,100592.22
2023-01-01T17:49:37.023Z,100592.84
2023-01-01T17:52:09.534Z,100597.06
2023-01-01T17:54:42.088Z,100594.86
2023-01-01T17:57:15.145Z,100593.27
2023-01-01T17:59:47.662Z,100601.95
2023-01-01T18:02:20.224Z,100588.23
2023-01-01T18:04:54.819Z,100600.13
2023-01-01T18:07:27.541Z,100592.58
2023-01-01T18:10:00.057Z,100597.59
2023-01-01T18:12:33.536Z,100594.80
2023-01-01T18:15:06.228Z,100592.34
2023-01-01T18:17:38.835Z,100600.52
2023-01-01T18:20:12.372Z,100604.87
2023-01-01T18:22:45.436Z,100594.74
2023-01-01T18:25:18.191Z,100606.77
2023-01-01T18:27:57.355Z,100600.23
2023-01-01T18:30:26.018Z,100589.63
2023-01-01T18:32:58.470Z,100582.75
2023-01-01T18:35:30.774Z,100584.59
2023-01-01T18:38:03.255Z,100582.80
2023-01-01T18:40:35.861Z,100577.49
2023-01-01T18:43:16.238Z,100576.75
2023-01-01T18:45:49.313Z,100584.56
2023-01-01T18:48:23.086Z,100581.98
2023-01-01T18:50:55.647Z,100591.14
2023-01-01T18:53:28.985Z,100598.92
2023-01-01T18:56:26.594Z,100588.91
2023-01-01T18:58:58.931Z,100596.06
2023-01-01T19:01:33.029Z,100594.57
2023-01-01T19:04:08.791Z,100595.31
2023-01-01T19:06:41.669Z,100589.66
2023-01-01T19:09:23.347Z,100593.34
2023-01-01T19:11:56.602Z,100600.14
2023-01-01T19:14:31.957Z,100601.37
2023-01-01T19:17:07.784Z,100604.88
2023-01-01T19:19:41.979Z,100604.88
2023-01-01T19:22:29.231Z,100608.56
2023-01-01T19:25:04.436Z,100603.78
2023-01-01T19:27:37.069Z,100608.08
2023-01-01T19:30:23.922Z,100603.65
2023-01-01T19:32:58.054Z,100604.62
2023-01-01T19:35:30.555Z,100600.94
2023-01-01T19:38:03.196Z,100606.50
2023-01-01T19:40:36.742Z,100597.34
2023-01-01T19:43:09.130Z,100603.65
2023-01-01T19:45:41.562Z,100607.48
2023-01-01T19:48:13.898Z,100612.20
2023-01-01T19:50:47.719Z,100605.19
2023-01-01T19:53:20.069Z,100614.84
2023-01-01T19:55:53.055Z,100600.38
2023-01-01T19:58:25.504Z,100610.89
2023-01-01T20:00:57.922Z,100593.84
2023-01-01T20:03:53.242Z,100592.27
2023-01-01T20:06:06.668Z,100606.83
2023-01-01T20:08:39.256Z,100598.67
2023-01-01T20:11:12.999Z,100599.68
2023-01-01T20:13:46.198Z,100608.48
2023-01-01T20:16:18.634Z,100605.38
2023-01-01T20:18:51.079Z,100606.74
2023-01-01T20:21:41.157Z,100613.54
2023-01-01T20:24:13.440Z,100624.05
2023-01-01T20:26:47.701Z,100632.96
2023-01-01T20:29:20.239Z,100632.73
2023-01-01T20:31:54.288Z,100633.00
2023-01-01T20:34:27.257Z,100640.15
2023-01-01T20:37:17.586Z,100635.59
2023-01-01T20:39:50.488Z,100642.52
2023-01-01T20:42:23.873Z,100650.80
2023-01-01T20:44:56.789Z,100659.09
2023-01-01T20:47:29.234Z,100658.38
2023-01-01T20:50:01.918Z,100647.50
2023-01-01T20:52:34.767Z,100659.86
2023-01-01T20:55:08.241Z,100666.79
2023-01-01T20:57:40.879Z,100663.59
2023-01-01T21:00:14.395Z,100663.59
2023-01-01T21:02:48.607Z,100661.39
2023-01-01T21:05:21.199Z,100658.06
2023-01-01T21:07:54.775Z,100656.95
2023-01-01T21:10:27.634Z,100653.49
2023-01-01T21:13:00.727Z,100657.09
2023-01-01T21:15:33.859Z,100657.57
2023-01-01T21:18:06.327Z,100667.08
2023-01-01T21:21:00.105Z,100668.08
2023-01-01T21:23:32.719Z,100664.36
2023-01-01T21:26:28.886Z,100668.44
2023-01-01T21:29:01.595Z,100674.62
2023-01-01T21:31:39.942Z,100670.90
2023-01-01T21:34:26.111Z,100667.83
2023-01-01T21:37:49.111Z,100673.88
2023-01-01T21:40:32.222Z,100679.95
2023-01-01T21:43:25.926Z,100681.92
2023-01-01T21:46:05.234Z,100690.17
2023-01-01T21:48:47.708Z,100685.87
2023-01-01T21:51:27.411Z,100673.55
2023-01-01T21:54:17.111Z,100681.82
2023-01-01T21:57:05.234Z,100689.74
2023-01-01T21:59:43.128Z,100690.96
2023-01-01T22:02:32.807Z,100690.98
2023-01-01T22:05:30.173Z,100690.89
2023-01-01T22:08:05.623Z,100683.47
2023-01-01T22:10:39.552Z,100673.86
2023-01-01T22:13:15.758Z,100674.12
2023-01-01T22:15:48.513Z,100666.61
2023-01-01T22:18:27.136Z,100665.38
2023-01-01T22:21:01.961Z,100664.87
2023-01-01T22:23:41.226Z,100672.30
2023-01-01T22:26:19.541Z,100673.91
2023-01-01T22:29:07.614Z,100675.13
2023-01-01T22:31:45.368Z,100681.20
2023-01-01T22:34:22.452Z,100673.30
2023-01-01T22:36:54.860Z,100670.48
2023-01-01T22:39:33.748Z,100669.38
2023-01-01T22:42:06.049Z,100664.55
2023-01-01T22:44:38.506Z,100664.80
2023-01-01T22:47:20.416Z,100681.34
2023-01-01T22:49:53.399Z,100680.10
2023-01-01T22:52:25.968Z,100688.01
2023-01-01T22:54:58.374Z,100689.61
2023-01-01T22:57:30.795Z,100699.36
2023-01-01T23:00:03.417Z,100703.06
2023-01-01T23:02:36.442Z,100707.75
2023-01-01T23:05:09.385Z,100702.95
2023-01-01T23:07:43.581Z,100712.18
2023-01-01T23:10:15.994Z,100713.81
2023-01-01T23:12:48.712Z,100713.30
2023-01-01T23:15:39.177Z,100720.81
2023-01-01T23:18:12.105Z,100723.80
2023-01-01T23:20:45.213Z,100728.59
2023-01-01T23:23:17.707Z,100728.08
2023-01-01T23:25:50.363Z,100726.61
2023-01-01T23:28:23.321Z,100734.86
2023-01-01T23:30:55.961Z,100736.84
2023-01-01T23:33:29.441Z,100729.31
2023-01-01T23:36:02.346Z,100733.98
2023-01-01T23:38:36.097Z,100731.39
2023-01-01T23:41:08.502Z,100731.52
2023-01-01T23:43:43.841Z,100722.77
2023-01-01T23:46:15.200Z,100726.95
2023-01-01T23:48:47.965Z,100718.07
2023-01-01T23:51:21.334Z,100722.77
2023-01-01T23:53:53.828Z,100730.51
2023-01-01T23:56:26.314Z,100732.86
2023-01-01T23:58:58.831Z,100726.83
